sensor_id;sensor_type;location;lat;lon;timestamp;P1;durP1;ratioP1;P2;durP2;ratioP2
41293;SDS011;27037;52.010;4.446;2024-01-11T00:00:14;24.88;;;10.85;;
41293;SDS011;27037;52.010;4.446;2024-01-11T00:02:41;21.05;;;10.15;;
41293;SDS011;27037;52.010;4.446;2024-01-11T00:05:06;22.15;;;10.68;;
41293;SDS011;27037;52.010;4.446;2024-01-11T00:07:32;19.88;;;10.10;;
41293;SDS011;27037;52.010;4.446;2024-01-11T00:09:58;21.58;;;10.18;;
41293;SDS011;27037;52.010;4.446;2024-01-11T00:12:25;23.05;;;11.43;;
41293;SDS011;27037;52.010;4.446;2024-01-11T00:14:50;20.73;;;10.23;;
41293;SDS011;27037;52.010;4.446;2024-01-11T00:17:16;22.27;;;11.45;;
41293;SDS011;27037;52.010;4.446;2024-01-11T00:19:42;22.67;;;11.60;;
41293;SDS011;27037;52.010;4.446;2024-01-11T00:22:07;23.30;;;10.82;;
41293;SDS011;27037;52.010;4.446;2024-01-11T00:24:33;24.30;;;11.18;;
41293;SDS011;27037;52.010;4.446;2024-01-11T00:26:58;24.88;;;11.32;;
41293;SDS011;27037;52.010;4.446;2024-01-11T00:29:24;23.80;;;11.35;;
41293;SDS011;27037;52.010;4.446;2024-01-11T00:31:49;24.17;;;11.52;;
41293;SDS011;27037;52.010;4.446;2024-01-11T00:34:15;23.75;;;11.38;;
41293;SDS011;27037;52.010;4.446;2024-01-11T00:36:41;23.73;;;10.68;;
41293;SDS011;27037;52.010;4.446;2024-01-11T00:39:06;25.60;;;11.98;;
41293;SDS011;27037;52.010;4.446;2024-01-11T00:41:32;25.10;;;12.02;;
41293;SDS011;27037;52.010;4.446;2024-01-11T00:43:57;25.40;;;11.57;;
41293;SDS011;27037;52.010;4.446;2024-01-11T00:46:23;23.95;;;10.93;;
41293;SDS011;27037;52.010;4.446;2024-01-11T00:48:48;25.58;;;10.75;;
41293;SDS011;27037;52.010;4.446;2024-01-11T00:51:15;22.90;;;11.88;;
41293;SDS011;27037;52.010;4.446;2024-01-11T00:53:40;24.25;;;12.38;;
41293;SDS011;27037;52.010;4.446;2024-01-11T00:56:14;22.48;;;11.35;;
41293;SDS011;27037;52.010;4.446;2024-01-11T00:58:43;25.70;;;11.95;;
41293;SDS011;27037;52.010;4.446;2024-01-11T01:01:09;23.17;;;11.68;;
41293;SDS011;27037;52.010;4.446;2024-01-11T01:03:35;25.77;;;12.15;;
41293;SDS011;27037;52.010;4.446;2024-01-11T01:06:01;24.42;;;11.18;;
41293;SDS011;27037;52.010;4.446;2024-01-11T01:08:27;26.00;;;12.30;;
41293;SDS011;27037;52.010;4.446;2024-01-11T01:10:53;24.98;;;12.18;;
41293;SDS011;27037;52.010;4.446;2024-01-11T01:13:18;25.40;;;11.15;;
41293;SDS011;27037;52.010;4.446;2024-01-11T01:15:44;26.05;;;12.02;;
41293;SDS011;27037;52.010;4.446;2024-01-11T01:18:10;24.73;;;11.90;;
41293;SDS011;27037;52.010;4.446;2024-01-11T01:20:35;25.80;;;12.20;;
41293;SDS011;27037;52.010;4.446;2024-01-11T01:23:01;24.02;;;11.15;;
41293;SDS011;27037;52.010;4.446;2024-01-11T01:25:27;28.20;;;12.35;;
41293;SDS011;27037;52.010;4.446;2024-01-11T01:27:53;24.25;;;11.77;;
41293;SDS011;27037;52.010;4.446;2024-01-11T01:30:18;28.88;;;12.05;;
41293;SDS011;27037;52.010;4.446;2024-01-11T01:32:44;27.77;;;12.13;;
41293;SDS011;27037;52.010;4.446;2024-01-11T01:35:10;27.77;;;12.70;;
41293;SDS011;27037;52.010;4.446;2024-01-11T01:37:36;25.35;;;12.35;;
41293;SDS011;27037;52.010;4.446;2024-01-11T01:40:01;25.05;;;11.93;;
41293;SDS011;27037;52.010;4.446;2024-01-11T01:42:27;24.63;;;11.57;;
41293;SDS011;27037;52.010;4.446;2024-01-11T01:44:53;25.52;;;12.52;;
41293;SDS011;27037;52.010;4.446;2024-01-11T01:47:18;26.08;;;12.68;;
41293;SDS011;27037;52.010;4.446;2024-01-11T01:49:44;29.02;;;12.93;;
41293;SDS011;27037;52.010;4.446;2024-01-11T01:52:10;29.08;;;12.30;;
41293;SDS011;27037;52.010;4.446;2024-01-11T01:54:39;28.02;;;12.80;;
41293;SDS011;27037;52.010;4.446;2024-01-11T01:57:04;27.05;;;11.93;;
41293;SDS011;27037;52.010;4.446;2024-01-11T01:59:32;29.90;;;13.00;;
41293;SDS011;27037;52.010;4.446;2024-01-11T02:01:58;28.67;;;12.32;;
41293;SDS011;27037;52.010;4.446;2024-01-11T02:04:25;29.90;;;12.65;;
41293;SDS011;27037;52.010;4.446;2024-01-11T02:06:50;28.25;;;12.52;;
41293;SDS011;27037;52.010;4.446;2024-01-11T02:09:18;27.98;;;12.13;;
41293;SDS011;27037;52.010;4.446;2024-01-11T02:11:44;29.00;;;12.75;;
41293;SDS011;27037;52.010;4.446;2024-01-11T02:14:10;24.85;;;12.30;;
41293;SDS011;27037;52.010;4.446;2024-01-11T02:16:36;28.80;;;12.85;;
41293;SDS011;27037;52.010;4.446;2024-01-11T02:19:03;30.10;;;12.70;;
41293;SDS011;27037;52.010;4.446;2024-01-11T02:21:33;26.45;;;12.68;;
41293;SDS011;27037;52.010;4.446;2024-01-11T02:24:03;27.00;;;11.85;;
41293;SDS011;27037;52.010;4.446;2024-01-11T02:26:29;28.65;;;13.25;;
41293;SDS011;27037;52.010;4.446;2024-01-11T02:28:54;34.38;;;14.30;;
41293;SDS011;27037;52.010;4.446;2024-01-11T02:31:21;33.67;;;14.45;;
41293;SDS011;27037;52.010;4.446;2024-01-11T02:33:47;31.35;;;13.68;;
41293;SDS011;27037;52.010;4.446;2024-01-11T02:36:13;30.27;;;13.80;;
41293;SDS011;27037;52.010;4.446;2024-01-11T02:38:39;28.40;;;12.27;;
41293;SDS011;27037;52.010;4.446;2024-01-11T02:41:07;29.90;;;12.55;;
41293;SDS011;27037;52.010;4.446;2024-01-11T02:43:33;30.88;;;13.27;;
41293;SDS011;27037;52.010;4.446;2024-01-11T02:46:01;29.17;;;13.60;;
41293;SDS011;27037;52.010;4.446;2024-01-11T02:48:27;34.00;;;13.52;;
41293;SDS011;27037;52.010;4.446;2024-01-11T02:50:57;27.95;;;13.40;;
41293;SDS011;27037;52.010;4.446;2024-01-11T02:53:23;28.20;;;13.65;;
41293;SDS011;27037;52.010;4.446;2024-01-11T02:55:49;31.60;;;13.20;;
41293;SDS011;27037;52.010;4.446;2024-01-11T02:58:15;29.40;;;13.65;;
41293;SDS011;27037;52.010;4.446;2024-01-11T03:00:41;31.38;;;14.02;;
41293;SDS011;27037;52.010;4.446;2024-01-11T03:03:06;30.35;;;13.68;;
41293;SDS011;27037;52.010;4.446;2024-01-11T03:05:32;30.30;;;13.65;;
41293;SDS011;27037;52.010;4.446;2024-01-11T03:07:57;31.20;;;14.05;;
41293;SDS011;27037;52.010;4.446;2024-01-11T03:10:23;28.85;;;13.68;;
41293;SDS011;27037;52.010;4.446;2024-01-11T03:12:49;30.98;;;13.95;;
41293;SDS011;27037;52.010;4.446;2024-01-11T03:15:14;31.17;;;13.82;;
41293;SDS011;27037;52.010;4.446;2024-01-11T03:17:40;32.60;;;14.30;;
41293;SDS011;27037;52.010;4.446;2024-01-11T03:20:06;33.03;;;14.15;;
41293;SDS011;27037;52.010;4.446;2024-01-11T03:22:32;33.70;;;14.07;;
41293;SDS011;27037;52.010;4.446;2024-01-11T03:24:58;36.92;;;15.27;;
41293;SDS011;27037;52.010;4.446;2024-01-11T03:27:23;30.20;;;13.65;;
41293;SDS011;27037;52.010;4.446;2024-01-11T03:29:49;33.80;;;14.00;;
41293;SDS011;27037;52.010;4.446;2024-01-11T03:32:15;32.22;;;14.30;;
41293;SDS011;27037;52.010;4.446;2024-01-11T03:34:41;29.48;;;13.55;;
41293;SDS011;27037;52.010;4.446;2024-01-11T03:37:06;31.80;;;14.40;;
41293;SDS011;27037;52.010;4.446;2024-01-11T03:39:32;35.60;;;15.30;;
41293;SDS011;27037;52.010;4.446;2024-01-11T03:41:59;30.33;;;14.27;;
41293;SDS011;27037;52.010;4.446;2024-01-11T03:44:24;32.83;;;15.10;;
41293;SDS011;27037;52.010;4.446;2024-01-11T03:46:50;31.23;;;14.75;;
41293;SDS011;27037;52.010;4.446;2024-01-11T03:49:16;31.23;;;14.77;;
41293;SDS011;27037;52.010;4.446;2024-01-11T03:51:42;36.00;;;15.73;;
41293;SDS011;27037;52.010;4.446;2024-01-11T03:54:08;35.63;;;16.30;;
41293;SDS011;27037;52.010;4.446;2024-01-11T03:56:35;33.72;;;15.48;;
41293;SDS011;27037;52.010;4.446;2024-01-11T03:59:04;39.45;;;16.98;;
41293;SDS011;27037;52.010;4.446;2024-01-11T04:01:30;36.40;;;15.85;;
41293;SDS011;27037;52.010;4.446;2024-01-11T04:03:56;33.10;;;15.68;;
41293;SDS011;27037;52.010;4.446;2024-01-11T04:06:22;37.80;;;16.50;;
41293;SDS011;27037;52.010;4.446;2024-01-11T04:08:49;37.55;;;15.82;;
41293;SDS011;27037;52.010;4.446;2024-01-11T04:11:15;32.80;;;15.63;;
41293;SDS011;27037;52.010;4.446;2024-01-11T04:13:41;36.13;;;15.80;;
41293;SDS011;27037;52.010;4.446;2024-01-11T04:16:07;36.60;;;16.50;;
41293;SDS011;27037;52.010;4.446;2024-01-11T04:18:33;37.20;;;17.13;;
41293;SDS011;27037;52.010;4.446;2024-01-11T04:20:58;38.85;;;17.92;;
41293;SDS011;27037;52.010;4.446;2024-01-11T04:23:24;40.80;;;16.88;;
41293;SDS011;27037;52.010;4.446;2024-01-11T04:25:50;39.83;;;18.00;;
41293;SDS011;27037;52.010;4.446;2024-01-11T04:28:16;37.75;;;17.40;;
41293;SDS011;27037;52.010;4.446;2024-01-11T04:30:42;36.72;;;17.63;;
41293;SDS011;27037;52.010;4.446;2024-01-11T04:33:08;37.85;;;16.35;;
41293;SDS011;27037;52.010;4.446;2024-01-11T04:35:34;40.63;;;16.70;;
41293;SDS011;27037;52.010;4.446;2024-01-11T04:37:59;40.72;;;17.77;;
41293;SDS011;27037;52.010;4.446;2024-01-11T04:40:25;38.95;;;17.35;;
41293;SDS011;27037;52.010;4.446;2024-01-11T04:42:51;38.30;;;17.55;;
41293;SDS011;27037;52.010;4.446;2024-01-11T04:45:16;36.97;;;17.25;;
41293;SDS011;27037;52.010;4.446;2024-01-11T04:47:42;41.38;;;18.73;;
41293;SDS011;27037;52.010;4.446;2024-01-11T04:50:08;39.03;;;17.88;;
41293;SDS011;27037;52.010;4.446;2024-01-11T04:52:33;38.78;;;17.75;;
41293;SDS011;27037;52.010;4.446;2024-01-11T04:54:59;41.10;;;18.77;;
41293;SDS011;27037;52.010;4.446;2024-01-11T04:57:24;40.33;;;18.42;;
41293;SDS011;27037;52.010;4.446;2024-01-11T04:59:50;41.03;;;18.48;;
41293;SDS011;27037;52.010;4.446;2024-01-11T05:02:16;43.85;;;18.90;;
41293;SDS011;27037;52.010;4.446;2024-01-11T05:04:41;41.47;;;19.13;;
41293;SDS011;27037;52.010;4.446;2024-01-11T05:07:07;40.22;;;17.92;;
41293;SDS011;27037;52.010;4.446;2024-01-11T05:09:32;39.60;;;18.30;;
41293;SDS011;27037;52.010;4.446;2024-01-11T05:11:58;45.45;;;19.40;;
41293;SDS011;27037;52.010;4.446;2024-01-11T05:14:24;46.55;;;19.70;;
41293;SDS011;27037;52.010;4.446;2024-01-11T05:16:49;41.20;;;18.88;;
41293;SDS011;27037;52.010;4.446;2024-01-11T05:19:15;42.47;;;19.58;;
41293;SDS011;27037;52.010;4.446;2024-01-11T05:21:41;44.97;;;19.40;;
41293;SDS011;27037;52.010;4.446;2024-01-11T05:24:06;41.75;;;19.40;;
41293;SDS011;27037;52.010;4.446;2024-01-11T05:26:32;41.55;;;19.05;;
41293;SDS011;27037;52.010;4.446;2024-01-11T05:28:57;41.38;;;18.85;;
41293;SDS011;27037;52.010;4.446;2024-01-11T05:31:24;43.40;;;19.75;;
41293;SDS011;27037;52.010;4.446;2024-01-11T05:33:49;44.67;;;18.90;;
41293;SDS011;27037;52.010;4.446;2024-01-11T05:36:15;41.65;;;19.83;;
41293;SDS011;27037;52.010;4.446;2024-01-11T05:38:40;44.17;;;19.48;;
41293;SDS011;27037;52.010;4.446;2024-01-11T05:41:06;39.95;;;18.63;;
41293;SDS011;27037;52.010;4.446;2024-01-11T05:43:32;38.58;;;17.92;;
41293;SDS011;27037;52.010;4.446;2024-01-11T05:45:58;43.50;;;18.95;;
41293;SDS011;27037;52.010;4.446;2024-01-11T05:48:23;44.10;;;19.50;;
41293;SDS011;27037;52.010;4.446;2024-01-11T05:50:49;46.38;;;18.95;;
41293;SDS011;27037;52.010;4.446;2024-01-11T05:53:15;47.75;;;21.05;;
41293;SDS011;27037;52.010;4.446;2024-01-11T05:55:42;41.63;;;19.48;;
41293;SDS011;27037;52.010;4.446;2024-01-11T05:58:07;48.80;;;20.92;;
41293;SDS011;27037;52.010;4.446;2024-01-11T06:00:33;43.55;;;19.83;;
41293;SDS011;27037;52.010;4.446;2024-01-11T06:02:59;51.97;;;20.75;;
41293;SDS011;27037;52.010;4.446;2024-01-11T06:05:25;44.58;;;19.83;;
41293;SDS011;27037;52.010;4.446;2024-01-11T06:07:51;46.97;;;21.17;;
41293;SDS011;27037;52.010;4.446;2024-01-11T06:10:16;47.45;;;21.30;;
41293;SDS011;27037;52.010;4.446;2024-01-11T06:12:42;43.30;;;20.35;;
41293;SDS011;27037;52.010;4.446;2024-01-11T06:15:08;48.47;;;20.80;;
41293;SDS011;27037;52.010;4.446;2024-01-11T06:17:34;50.67;;;20.27;;
41293;SDS011;27037;52.010;4.446;2024-01-11T06:20:00;45.78;;;20.45;;
41293;SDS011;27037;52.010;4.446;2024-01-11T06:22:26;46.63;;;19.52;;
41293;SDS011;27037;52.010;4.446;2024-01-11T06:24:52;45.22;;;20.38;;
41293;SDS011;27037;52.010;4.446;2024-01-11T06:27:18;49.53;;;20.17;;
41293;SDS011;27037;52.010;4.446;2024-01-11T06:29:43;47.33;;;21.45;;
41293;SDS011;27037;52.010;4.446;2024-01-11T06:32:09;45.80;;;20.17;;
41293;SDS011;27037;52.010;4.446;2024-01-11T06:34:35;49.95;;;20.42;;
41293;SDS011;27037;52.010;4.446;2024-01-11T06:37:01;47.90;;;21.58;;
41293;SDS011;27037;52.010;4.446;2024-01-11T06:39:27;49.25;;;21.77;;
41293;SDS011;27037;52.010;4.446;2024-01-11T06:41:54;47.85;;;22.13;;
41293;SDS011;27037;52.010;4.446;2024-01-11T06:44:20;52.10;;;22.35;;
41293;SDS011;27037;52.010;4.446;2024-01-11T06:46:46;52.60;;;22.75;;
41293;SDS011;27037;52.010;4.446;2024-01-11T06:49:11;54.88;;;23.20;;
41293;SDS011;27037;52.010;4.446;2024-01-11T06:51:37;55.67;;;23.70;;
41293;SDS011;27037;52.010;4.446;2024-01-11T06:54:04;56.47;;;24.98;;
41293;SDS011;27037;52.010;4.446;2024-01-11T06:56:29;62.17;;;25.90;;
41293;SDS011;27037;52.010;4.446;2024-01-11T06:58:55;57.90;;;25.42;;
41293;SDS011;27037;52.010;4.446;2024-01-11T07:01:22;60.88;;;26.73;;
41293;SDS011;27037;52.010;4.446;2024-01-11T07:03:48;63.78;;;27.02;;
41293;SDS011;27037;52.010;4.446;2024-01-11T07:06:14;60.53;;;26.25;;
41293;SDS011;27037;52.010;4.446;2024-01-11T07:08:40;60.50;;;26.60;;
41293;SDS011;27037;52.010;4.446;2024-01-11T07:11:06;62.10;;;25.38;;
41293;SDS011;27037;52.010;4.446;2024-01-11T07:13:32;66.63;;;26.70;;
41293;SDS011;27037;52.010;4.446;2024-01-11T07:15:58;58.90;;;26.40;;
41293;SDS011;27037;52.010;4.446;2024-01-11T07:18:25;65.78;;;27.77;;
41293;SDS011;27037;52.010;4.446;2024-01-11T07:20:51;67.82;;;27.75;;
41293;SDS011;27037;52.010;4.446;2024-01-11T07:23:17;65.60;;;28.40;;
41293;SDS011;27037;52.010;4.446;2024-01-11T07:25:43;66.25;;;28.52;;
41293;SDS011;27037;52.010;4.446;2024-01-11T07:28:08;67.13;;;27.75;;
41293;SDS011;27037;52.010;4.446;2024-01-11T07:30:34;64.38;;;28.92;;
41293;SDS011;27037;52.010;4.446;2024-01-11T07:33:00;62.08;;;28.27;;
41293;SDS011;27037;52.010;4.446;2024-01-11T07:35:25;63.50;;;26.80;;
41293;SDS011;27037;52.010;4.446;2024-01-11T07:37:51;71.38;;;29.75;;
41293;SDS011;27037;52.010;4.446;2024-01-11T07:40:17;65.78;;;28.30;;
41293;SDS011;27037;52.010;4.446;2024-01-11T07:42:42;68.47;;;28.42;;
41293;SDS011;27037;52.010;4.446;2024-01-11T07:45:09;70.57;;;28.92;;
41293;SDS011;27037;52.010;4.446;2024-01-11T07:47:39;66.50;;;28.33;;
41293;SDS011;27037;52.010;4.446;2024-01-11T07:50:05;67.88;;;28.27;;
41293;SDS011;27037;52.010;4.446;2024-01-11T07:52:37;64.80;;;28.30;;
41293;SDS011;27037;52.010;4.446;2024-01-11T07:55:06;69.32;;;29.20;;
41293;SDS011;27037;52.010;4.446;2024-01-11T07:57:36;65.80;;;27.70;;
41293;SDS011;27037;52.010;4.446;2024-01-11T08:00:02;65.03;;;28.48;;
41293;SDS011;27037;52.010;4.446;2024-01-11T08:02:28;62.03;;;28.20;;
41293;SDS011;27037;52.010;4.446;2024-01-11T08:04:54;68.32;;;28.65;;
41293;SDS011;27037;52.010;4.446;2024-01-11T08:07:20;66.82;;;29.00;;
41293;SDS011;27037;52.010;4.446;2024-01-11T08:09:46;66.28;;;28.65;;
41293;SDS011;27037;52.010;4.446;2024-01-11T08:12:12;66.82;;;27.90;;
41293;SDS011;27037;52.010;4.446;2024-01-11T08:14:38;65.95;;;28.65;;
41293;SDS011;27037;52.010;4.446;2024-01-11T08:17:04;63.63;;;28.55;;
41293;SDS011;27037;52.010;4.446;2024-01-11T08:19:30;67.40;;;29.77;;
41293;SDS011;27037;52.010;4.446;2024-01-11T08:21:57;67.70;;;29.30;;
41293;SDS011;27037;52.010;4.446;2024-01-11T08:24:23;70.20;;;29.83;;
41293;SDS011;27037;52.010;4.446;2024-01-11T08:26:49;70.10;;;32.15;;
41293;SDS011;27037;52.010;4.446;2024-01-11T08:29:15;71.07;;;30.25;;
41293;SDS011;27037;52.010;4.446;2024-01-11T08:31:44;68.95;;;28.30;;
41293;SDS011;27037;52.010;4.446;2024-01-11T08:34:09;73.93;;;30.98;;
41293;SDS011;27037;52.010;4.446;2024-01-11T08:36:35;70.22;;;30.02;;
41293;SDS011;27037;52.010;4.446;2024-01-11T08:39:02;78.15;;;32.47;;
41293;SDS011;27037;52.010;4.446;2024-01-11T08:41:31;70.82;;;31.58;;
41293;SDS011;27037;52.010;4.446;2024-01-11T08:43:57;73.63;;;31.60;;
41293;SDS011;27037;52.010;4.446;2024-01-11T08:46:24;73.78;;;31.65;;
41293;SDS011;27037;52.010;4.446;2024-01-11T08:48:53;81.65;;;31.90;;
41293;SDS011;27037;52.010;4.446;2024-01-11T08:51:21;73.53;;;31.45;;
41293;SDS011;27037;52.010;4.446;2024-01-11T08:53:46;76.75;;;31.95;;
41293;SDS011;27037;52.010;4.446;2024-01-11T08:56:12;77.28;;;32.95;;
41293;SDS011;27037;52.010;4.446;2024-01-11T08:58:39;82.78;;;32.78;;
41293;SDS011;27037;52.010;4.446;2024-01-11T09:01:05;81.80;;;33.72;;
41293;SDS011;27037;52.010;4.446;2024-01-11T09:03:33;81.55;;;35.03;;
41293;SDS011;27037;52.010;4.446;2024-01-11T09:06:00;82.20;;;34.85;;
41293;SDS011;27037;52.010;4.446;2024-01-11T09:08:26;85.93;;;35.13;;
41293;SDS011;27037;52.010;4.446;2024-01-11T09:10:51;86.28;;;35.55;;
41293;SDS011;27037;52.010;4.446;2024-01-11T09:13:18;86.68;;;34.63;;
41293;SDS011;27037;52.010;4.446;2024-01-11T09:15:44;85.93;;;36.00;;
41293;SDS011;27037;52.010;4.446;2024-01-11T09:18:10;80.95;;;34.58;;
41293;SDS011;27037;52.010;4.446;2024-01-11T09:20:35;76.75;;;33.00;;
41293;SDS011;27037;52.010;4.446;2024-01-11T09:23:01;84.15;;;35.15;;
41293;SDS011;27037;52.010;4.446;2024-01-11T09:25:28;81.28;;;34.92;;
41293;SDS011;27037;52.010;4.446;2024-01-11T09:27:55;81.60;;;34.88;;
41293;SDS011;27037;52.010;4.446;2024-01-11T09:30:21;82.50;;;35.63;;
41293;SDS011;27037;52.010;4.446;2024-01-11T09:32:46;84.63;;;36.10;;
41293;SDS011;27037;52.010;4.446;2024-01-11T09:35:12;80.63;;;35.65;;
41293;SDS011;27037;52.010;4.446;2024-01-11T09:37:38;90.07;;;35.97;;
41293;SDS011;27037;52.010;4.446;2024-01-11T09:40:04;88.32;;;36.95;;
41293;SDS011;27037;52.010;4.446;2024-01-11T09:42:35;87.50;;;37.25;;
41293;SDS011;27037;52.010;4.446;2024-01-11T09:45:02;81.22;;;35.53;;
41293;SDS011;27037;52.010;4.446;2024-01-11T09:47:32;76.65;;;33.92;;
41293;SDS011;27037;52.010;4.446;2024-01-11T09:49:59;85.13;;;37.08;;
41293;SDS011;27037;52.010;4.446;2024-01-11T09:52:27;82.72;;;37.15;;
41293;SDS011;27037;52.010;4.446;2024-01-11T09:54:56;77.95;;;35.63;;
41293;SDS011;27037;52.010;4.446;2024-01-11T09:57:28;73.28;;;33.03;;
41293;SDS011;27037;52.010;4.446;2024-01-11T09:59:56;72.72;;;32.67;;
41293;SDS011;27037;52.010;4.446;2024-01-11T10:02:23;73.40;;;33.20;;
41293;SDS011;27037;52.010;4.446;2024-01-11T10:04:50;74.95;;;32.63;;
41293;SDS011;27037;52.010;4.446;2024-01-11T10:07:17;72.80;;;32.88;;
41293;SDS011;27037;52.010;4.446;2024-01-11T10:09:46;74.78;;;33.20;;
41293;SDS011;27037;52.010;4.446;2024-01-11T10:12:12;77.68;;;33.20;;
41293;SDS011;27037;52.010;4.446;2024-01-11T10:14:38;72.70;;;32.75;;
41293;SDS011;27037;52.010;4.446;2024-01-11T10:17:04;73.70;;;33.47;;
41293;SDS011;27037;52.010;4.446;2024-01-11T10:19:30;73.57;;;33.30;;
41293;SDS011;27037;52.010;4.446;2024-01-11T10:21:56;84.00;;;35.92;;
41293;SDS011;27037;52.010;4.446;2024-01-11T10:24:23;76.03;;;35.60;;
41293;SDS011;27037;52.010;4.446;2024-01-11T10:26:51;75.05;;;34.60;;
41293;SDS011;27037;52.010;4.446;2024-01-11T10:29:20;75.88;;;36.05;;
41293;SDS011;27037;52.010;4.446;2024-01-11T10:31:46;76.82;;;35.70;;
41293;SDS011;27037;52.010;4.446;2024-01-11T10:34:12;73.50;;;34.65;;
41293;SDS011;27037;52.010;4.446;2024-01-11T10:36:38;74.72;;;34.00;;
41293;SDS011;27037;52.010;4.446;2024-01-11T10:39:05;76.03;;;34.72;;
41293;SDS011;27037;52.010;4.446;2024-01-11T10:41:36;69.47;;;32.33;;
41293;SDS011;27037;52.010;4.446;2024-01-11T10:44:18;71.43;;;31.83;;
41293;SDS011;27037;52.010;4.446;2024-01-11T10:46:45;67.18;;;32.00;;
41293;SDS011;27037;52.010;4.446;2024-01-11T10:49:11;64.90;;;30.15;;
41293;SDS011;27037;52.010;4.446;2024-01-11T10:51:43;63.08;;;30.77;;
41293;SDS011;27037;52.010;4.446;2024-01-11T10:54:14;62.70;;;29.92;;
41293;SDS011;27037;52.010;4.446;2024-01-11T10:56:41;59.92;;;28.75;;
41293;SDS011;27037;52.010;4.446;2024-01-11T10:59:09;56.25;;;28.25;;
41293;SDS011;27037;52.010;4.446;2024-01-11T11:01:37;60.35;;;27.75;;
41293;SDS011;27037;52.010;4.446;2024-01-11T11:04:04;53.20;;;26.77;;
41293;SDS011;27037;52.010;4.446;2024-01-11T11:06:32;53.40;;;25.75;;
41293;SDS011;27037;52.010;4.446;2024-01-11T11:09:00;51.42;;;26.20;;
41293;SDS011;27037;52.010;4.446;2024-01-11T11:11:28;55.03;;;25.80;;
41293;SDS011;27037;52.010;4.446;2024-01-11T11:14:00;51.38;;;25.60;;
41293;SDS011;27037;52.010;4.446;2024-01-11T11:16:28;48.53;;;25.15;;
41293;SDS011;27037;52.010;4.446;2024-01-11T11:18:53;54.17;;;24.98;;
41293;SDS011;27037;52.010;4.446;2024-01-11T11:21:20;52.83;;;25.48;;
41293;SDS011;27037;52.010;4.446;2024-01-11T11:23:46;49.08;;;24.10;;
41293;SDS011;27037;52.010;4.446;2024-01-11T11:26:18;50.83;;;25.35;;
41293;SDS011;27037;52.010;4.446;2024-01-11T11:28:44;46.28;;;23.20;;
41293;SDS011;27037;52.010;4.446;2024-01-11T11:31:13;46.40;;;23.98;;
41293;SDS011;27037;52.010;4.446;2024-01-11T11:33:38;44.80;;;23.00;;
41293;SDS011;27037;52.010;4.446;2024-01-11T11:36:05;43.83;;;22.63;;
41293;SDS011;27037;52.010;4.446;2024-01-11T11:38:38;43.42;;;22.48;;
41293;SDS011;27037;52.010;4.446;2024-01-11T11:41:04;45.65;;;22.50;;
41293;SDS011;27037;52.010;4.446;2024-01-11T11:43:30;43.92;;;22.10;;
41293;SDS011;27037;52.010;4.446;2024-01-11T11:45:56;45.42;;;22.98;;
41293;SDS011;27037;52.010;4.446;2024-01-11T11:53:35;41.60;;;21.08;;
41293;SDS011;27037;52.010;4.446;2024-01-11T11:56:01;37.55;;;20.38;;
41293;SDS011;27037;52.010;4.446;2024-01-11T11:58:28;40.70;;;20.20;;
41293;SDS011;27037;52.010;4.446;2024-01-11T12:00:57;40.90;;;21.00;;
41293;SDS011;27037;52.010;4.446;2024-01-11T12:03:25;40.95;;;21.13;;
41293;SDS011;27037;52.010;4.446;2024-01-11T12:05:57;41.40;;;21.45;;
41293;SDS011;27037;52.010;4.446;2024-01-11T12:08:24;43.28;;;21.55;;
41293;SDS011;27037;52.010;4.446;2024-01-11T12:10:50;41.53;;;21.05;;
41293;SDS011;27037;52.010;4.446;2024-01-11T12:13:17;37.97;;;21.33;;
41293;SDS011;27037;52.010;4.446;2024-01-11T12:15:43;42.03;;;21.95;;
41293;SDS011;27037;52.010;4.446;2024-01-11T12:18:09;38.38;;;20.42;;
41293;SDS011;27037;52.010;4.446;2024-01-11T12:20:35;41.90;;;21.77;;
41293;SDS011;27037;52.010;4.446;2024-01-11T12:23:00;41.10;;;21.60;;
41293;SDS011;27037;52.010;4.446;2024-01-11T12:25:31;38.95;;;21.30;;
41293;SDS011;27037;52.010;4.446;2024-01-11T12:27:57;41.13;;;21.42;;
41293;SDS011;27037;52.010;4.446;2024-01-11T12:30:23;38.55;;;21.15;;
41293;SDS011;27037;52.010;4.446;2024-01-11T12:32:49;38.08;;;20.40;;
41293;SDS011;27037;52.010;4.446;2024-01-11T12:35:16;41.30;;;21.05;;
41293;SDS011;27037;52.010;4.446;2024-01-11T12:38:03;37.40;;;21.10;;
41293;SDS011;27037;52.010;4.446;2024-01-11T12:40:31;37.30;;;20.67;;
41293;SDS011;27037;52.010;4.446;2024-01-11T12:42:59;39.17;;;20.85;;
41293;SDS011;27037;52.010;4.446;2024-01-11T12:45:25;42.17;;;21.17;;
41293;SDS011;27037;52.010;4.446;2024-01-11T12:47:54;38.20;;;22.13;;
41293;SDS011;27037;52.010;4.446;2024-01-11T12:50:22;40.72;;;22.02;;
41293;SDS011;27037;52.010;4.446;2024-01-11T12:53:04;39.45;;;20.98;;
41293;SDS011;27037;52.010;4.446;2024-01-11T12:55:29;40.47;;;21.00;;
41293;SDS011;27037;52.010;4.446;2024-01-11T12:58:05;35.38;;;19.58;;
41293;SDS011;27037;52.010;4.446;2024-01-11T13:00:31;35.80;;;20.15;;
41293;SDS011;27037;52.010;4.446;2024-01-11T13:02:57;39.72;;;21.13;;
41293;SDS011;27037;52.010;4.446;2024-01-11T13:05:22;34.63;;;19.70;;
41293;SDS011;27037;52.010;4.446;2024-01-11T13:07:48;38.47;;;19.77;;
41293;SDS011;27037;52.010;4.446;2024-01-11T13:10:14;37.58;;;20.40;;
41293;SDS011;27037;52.010;4.446;2024-01-11T13:12:39;36.58;;;20.80;;
41293;SDS011;27037;52.010;4.446;2024-01-11T13:15:05;39.08;;;21.23;;
41293;SDS011;27037;52.010;4.446;2024-01-11T13:17:31;37.00;;;20.98;;
41293;SDS011;27037;52.010;4.446;2024-01-11T13:19:57;41.30;;;20.52;;
41293;SDS011;27037;52.010;4.446;2024-01-11T13:22:24;39.92;;;20.10;;
41293;SDS011;27037;52.010;4.446;2024-01-11T13:24:50;37.63;;;20.38;;
41293;SDS011;27037;52.010;4.446;2024-01-11T13:27:15;37.25;;;20.08;;
41293;SDS011;27037;52.010;4.446;2024-01-11T13:29:41;34.33;;;19.95;;
41293;SDS011;27037;52.010;4.446;2024-01-11T13:32:07;37.30;;;19.98;;
41293;SDS011;27037;52.010;4.446;2024-01-11T13:34:32;39.70;;;20.85;;
41293;SDS011;27037;52.010;4.446;2024-01-11T13:36:58;37.65;;;20.95;;
41293;SDS011;27037;52.010;4.446;2024-01-11T13:39:24;34.40;;;19.23;;
41293;SDS011;27037;52.010;4.446;2024-01-11T13:41:50;35.83;;;20.42;;
41293;SDS011;27037;52.010;4.446;2024-01-11T13:44:16;35.78;;;19.92;;
41293;SDS011;27037;52.010;4.446;2024-01-11T13:46:41;36.45;;;20.17;;
41293;SDS011;27037;52.010;4.446;2024-01-11T13:49:08;38.17;;;19.90;;
41293;SDS011;27037;52.010;4.446;2024-01-11T13:51:34;32.92;;;19.40;;
41293;SDS011;27037;52.010;4.446;2024-01-11T13:54:00;38.30;;;19.67;;
41293;SDS011;27037;52.010;4.446;2024-01-11T13:56:26;35.70;;;18.95;;
41293;SDS011;27037;52.010;4.446;2024-01-11T13:58:52;35.05;;;19.15;;
41293;SDS011;27037;52.010;4.446;2024-01-11T14:01:17;36.67;;;19.20;;
41293;SDS011;27037;52.010;4.446;2024-01-11T14:03:43;37.10;;;19.88;;
41293;SDS011;27037;52.010;4.446;2024-01-11T14:06:09;35.55;;;19.75;;
41293;SDS011;27037;52.010;4.446;2024-01-11T14:08:35;34.63;;;19.38;;
41293;SDS011;27037;52.010;4.446;2024-01-11T14:11:00;35.90;;;19.55;;
41293;SDS011;27037;52.010;4.446;2024-01-11T14:13:26;34.42;;;18.98;;
41293;SDS011;27037;52.010;4.446;2024-01-11T14:15:51;34.35;;;19.48;;
41293;SDS011;27037;52.010;4.446;2024-01-11T14:18:18;32.58;;;18.42;;
41293;SDS011;27037;52.010;4.446;2024-01-11T14:20:46;36.47;;;19.90;;